Time;durP1;ratioP1;P1;durP2;ratioP2;P2;SDS_P1;SDS_P2;PMS_P1;PMS_P2;Temp;Humidity;BMP_temperature;BMP_pressure;BME280_temperature;BME280_humidity;BME280_pressure;Samples;Min_cycle;Max_cycle;Signal;HPM_P1;HPM_P2
2022/06/24 00:01:40;;;;;;;;;;;;;;;;;;6194852;23;19904;-86
2022/06/24 00:04:06;;;;;;;;;;;;;;;;;;6224864;23;19982;-84
2022/06/24 00:06:43;;;;;;;;;;;;;;;;;;6222916;23;19969;-86
2022/06/24 00:09:09;;;;;;;;;;;;;;;;;;6246082;23;20407;-86
2022/06/24 00:11:34;;;;;;;;;;;;;;;;;;6218879;23;19907;-87
2022/06/24 00:14:17;;;;;;;;;;;;;;;;;;6246046;23;19911;-86
2022/06/24 00:16:52;;;;;;;;;;;;;;;;;;6245852;23;19982;-86
2022/06/24 00:19:17;;;;;;;;;;;;;;;;;;6219148;23;19994;-87
2022/06/24 00:21:43;;;;;;;;;;;;;;;;;;6219271;23;20315;-86
2022/06/24 00:24:19;;;;;;;;;;;;;;;;;;6260632;22;19918;-84
2022/06/24 00:26:45;;;;;;;;;;;;;;;;;;6223775;23;19914;-85
2022/06/24 00:29:14;;;;;;;;;;;;;;;;;;6245810;23;19938;-86
2022/06/24 00:31:40;;;;;;;;;;;;;;;;;;6218255;23;19907;-86
2022/06/24 00:34:20;;;;;;;;;;;;;;;;;;6219046;23;19965;-86
2022/06/24 00:36:45;;;;;;;;;;;;;;;;;;6245765;23;20034;-86
2022/06/24 00:39:11;;;;;;;;;;;;;;;;;;6218810;23;20266;-86
2022/06/24 00:41:36;;;;;;;;;;;;;;;;;;6245818;23;20385;-86
2022/06/24 00:44:01;;;;;;;;;;;;;;;;;;6247694;23;19934;-86
2022/06/24 00:46:27;;;;;;;;;;;;;;;;;;6260510;23;20377;-87
2022/06/24 00:48:56;;;;;;;;;;;;;;;;;;6219204;23;19974;-86
2022/06/24 00:51:22;;;;;;;;;;;;;;;;;;6219125;23;19935;-86
2022/06/24 00:53:51;;;;;;;;;;;;;;;;;;6246172;23;19903;-86
2022/06/24 00:56:17;;;;;;;;;;;;;;;;;;6218843;23;20345;-86
2022/06/24 00:58:52;;;;;;;;;;;;;;;;;;6218554;23;19904;-86
2022/06/24 01:01:25;;;;;;;;;;;;;;;;;;6245761;23;19915;-86
2022/06/24 01:03:50;;;;;;;;;;;;;;;;;;6224075;23;19904;-86
2022/06/24 01:06:15;;;;;;;;;;;;;;;;;;6202823;23;19907;-85
2022/06/24 01:08:41;;;;;;;;;;;;;;;;;;6221375;23;19931;-86
2022/06/24 01:11:06;;;;;;;;;;;;;;;;;;6245438;23;19941;-86
2022/06/24 01:13:31;;;;;;;;;;;;;;;;;;6221034;23;19907;-86
2022/06/24 01:15:57;;;;;;;;;;;;;;;;;;6228298;23;19919;-85
2022/06/24 01:18:22;;;;;;;;;;;;;;;;;;6226311;23;19912;-85
2022/06/24 01:20:48;;;;;;;;;;;;;;;;;;6247576;23;19927;-86
2022/06/24 01:23:21;;;;;;;;;;;;;;;;;;6245191;23;20333;-86
2022/06/24 01:25:47;;;;;;;;;;;;;;;;;;6198313;23;19979;-85
2022/06/24 01:28:12;;;;;;;;;;;;;;;;;;6247093;23;20239;-85
2022/06/24 01:30:37;;;;;;;;;;;;;;;;;;6218269;23;19908;-86
2022/06/24 01:33:03;;;;;;;;;;;;;;;;;;6245591;23;19914;-86
2022/06/24 01:35:28;;;;;;;;;;;;;;;;;;6218249;23;19907;-86
2022/06/24 01:37:53;;;;;;;;;;;;;;;;;;6245412;23;19963;-86
2022/06/24 01:40:19;;;;;;;;;;;;;;;;;;6218397;23;19914;-85
2022/06/24 01:42:44;;;;;;;;;;;;;;;;;;6244929;23;19908;-85
2022/06/24 01:45:10;;;;;;;;;;;;;;;;;;6219844;23;20385;-86
2022/06/24 01:47:35;;;;;;;;;;;;;;;;;;6248113;23;19914;-86
2022/06/24 01:50:00;;;;;;;;;;;;;;;;;;6222134;23;19914;-86
2022/06/24 01:52:26;;;;;;;;;;;;;;;;;;6245044;23;19912;-86
2022/06/24 01:54:51;;;;;;;;;;;;;;;;;;6245415;23;19934;-86
2022/06/24 01:57:16;;;;;;;;;;;;;;;;;;6245264;23;19958;-86
2022/06/24 01:59:42;;;;;;;;;;;;;;;;;;6244777;23;19908;-86
2022/06/24 02:02:07;;;;;;;;;;;;;;;;;;6218227;23;20235;-86
2022/06/24 02:04:32;;;;;;;;;;;;;;;;;;6218180;23;20311;-84
2022/06/24 02:06:58;;;;;;;;;;;;;;;;;;6250444;23;19909;-85
2022/06/24 02:09:23;;;;;;;;;;;;;;;;;;6220538;23;19907;-86
2022/06/24 02:14:32;;;;;;;;;;;;;;;;;;6245156;23;19914;-85
2022/06/24 02:16:58;;;;;;;;;;;;;;;;;;6192722;23;19911;-85
2022/06/24 02:19:23;;;;;;;;;;;;;;;;;;6245198;23;19914;-86
2022/06/24 02:21:48;;;;;;;;;;;;;;;;;;6217886;23;19932;-85
2022/06/24 02:24:15;;;;;;;;;;;;;;;;;;6245686;23;19907;-84
2022/06/24 02:26:40;;;;;;;;;;;;;;;;;;6250881;23;19908;-85
2022/06/24 02:29:06;;;;;;;;;;;;;;;;;;6219001;23;19907;-86
2022/06/24 02:31:31;;;;;;;;;;;;;;;;;;6257006;23;20243;-86
2022/06/24 02:33:58;;;;;;;;;;;;;;;;;;6246740;23;19908;-85
2022/06/24 02:36:23;;;;;;;;;;;;;;;;;;6247064;23;19907;-85
2022/06/24 02:38:48;;;;;;;;;;;;;;;;;;6220296;23;19908;-86
2022/06/24 02:41:14;;;;;;;;;;;;;;;;;;6246821;23;19942;-86
2022/06/24 02:43:39;;;;;;;;;;;;;;;;;;6219993;23;19907;-85
2022/06/24 02:46:06;;;;;;;;;;;;;;;;;;6222958;23;19978;-85
2022/06/24 02:48:31;;;;;;;;;;;;;;;;;;6250024;23;19916;-85
2022/06/24 02:50:57;;;;;;;;;;;;;;;;;;6258010;23;19928;-86
2022/06/24 02:53:23;;;;;;;;;;;;;;;;;;6246426;23;20354;-85
2022/06/24 02:55:49;;;;;;;;;;;;;;;;;;6246449;23;19908;-85
2022/06/24 02:58:14;;;;;;;;;;;;;;;;;;6246146;23;19914;-86
2022/06/24 03:00:41;;;;;;;;;;;;;;;;;;6246819;23;19908;-85
2022/06/24 03:03:07;;;;;;;;;;;;;;;;;;6219995;23;19914;-86
2022/06/24 03:05:32;;;;;;;;;;;;;;;;;;6248252;23;19939;-86
2022/06/24 03:07:57;;;;;;;;;;;;;;;;;;6256389;23;19914;-86
2022/06/24 03:10:23;;;;;;;;;;;;;;;;;;6219884;23;19914;-86
2022/06/24 03:12:48;;;;;;;;;;;;;;;;;;6220611;23;19930;-86
2022/06/24 03:15:13;;;;;;;;;;;;;;;;;;6247577;23;20002;-86
2022/06/24 03:17:39;;;;;;;;;;;;;;;;;;6246521;23;19979;-86
2022/06/24 03:20:05;;;;;;;;;;;;;;;;;;6195184;23;20243;-86
2022/06/24 03:22:30;;;;;;;;;;;;;;;;;;6246805;23;19907;-86
2022/06/24 03:24:56;;;;;;;;;;;;;;;;;;6246583;23;19907;-86
2022/06/24 03:27:22;;;;;;;;;;;;;;;;;;6224369;23;20271;-86
2022/06/24 03:29:50;;;;;;;;;;;;;;;;;;6257977;23;20001;-87
2022/06/24 03:32:16;;;;;;;;;;;;;;;;;;6246766;23;19958;-86
2022/06/24 03:34:44;;;;;;;;;;;;;;;;;;6247767;23;19907;-86
2022/06/24 03:37:09;;;;;;;;;;;;;;;;;;6248133;23;19908;-86
2022/06/24 03:39:34;;;;;;;;;;;;;;;;;;6219072;23;20306;-86
2022/06/24 03:42:00;;;;;;;;;;;;;;;;;;6246311;23;20335;-86
2022/06/24 03:44:25;;;;;;;;;;;;;;;;;;6219772;23;20215;-86
2022/06/24 03:46:50;;;;;;;;;;;;;;;;;;6250023;23;19908;-85
2022/06/24 03:49:16;;;;;;;;;;;;;;;;;;6253055;23;20025;-86
2022/06/24 03:51:41;;;;;;;;;;;;;;;;;;6246610;23;19957;-86
2022/06/24 03:54:07;;;;;;;;;;;;;;;;;;6249936;23;19908;-83
2022/06/24 03:56:32;;;;;;;;;;;;;;;;;;6221948;23;19907;-86
2022/06/24 03:58:58;;;;;;;;;;;;;;;;;;6246799;23;19930;-84
2022/06/24 04:01:23;;;;;;;;;;;;;;;;;;6245974;23;19958;-85
2022/06/24 04:03:48;;;;;;;;;;;;;;;;;;6222170;23;19976;-86
2022/06/24 04:06:14;;;;;;;;;;;;;;;;;;6249600;23;19908;-86
2022/06/24 04:08:39;;;;;;;;;;;;;;;;;;6259808;23;19965;-86
2022/06/24 04:11:15;;;;;;;;;;;;;;;;;;6246512;23;19907;-86
2022/06/24 04:13:41;;;;;;;;;;;;;;;;;;6222684;23;19915;-86
2022/06/24 04:16:06;;;;;;;;;;;;;;;;;;6251528;23;19907;-81
2022/06/24 04:18:32;;;;;;;;;;;;;;;;;;6245874;23;19942;-80
2022/06/24 04:20:57;;;;;;;;;;;;;;;;;;6245944;23;19907;-79
2022/06/24 04:23:22;;;;;;;;;;;;;;;;;;6218516;23;19913;-79
2022/06/24 04:25:48;;;;;;;;;;;;;;;;;;6219919;23;19975;-79
2022/06/24 04:28:13;;;;;;;;;;;;;;;;;;6225397;23;19979;-80
2022/06/24 04:30:38;;;;;;;;;;;;;;;;;;6245668;23;19947;-79
2022/06/24 04:33:04;;;;;;;;;;;;;;;;;;6219556;23;19931;-79
2022/06/24 04:35:29;;;;;;;;;;;;;;;;;;6247358;23;19907;-79
2022/06/24 04:37:54;;;;;;;;;;;;;;;;;;6218761;23;20230;-79
2022/06/24 04:40:20;;;;;;;;;;;;;;;;;;6246320;23;19931;-80
2022/06/24 04:42:46;;;;;;;;;;;;;;;;;;6219402;23;19912;-79
2022/06/24 04:45:11;;;;;;;;;;;;;;;;;;6246791;23;19914;-80
2022/06/24 04:47:37;;;;;;;;;;;;;;;;;;6258137;23;19907;-78
2022/06/24 04:50:02;;;;;;;;;;;;;;;;;;6250101;23;20323;-79
2022/06/24 04:52:27;;;;;;;;;;;;;;;;;;6218617;23;19907;-79
2022/06/24 04:54:53;;;;;;;;;;;;;;;;;;6247980;23;19970;-81
2022/06/24 04:57:18;;;;;;;;;;;;;;;;;;6224911;23;19908;-79
2022/06/24 04:59:44;;;;;;;;;;;;;;;;;;6219852;23;19908;-81
2022/06/24 05:02:20;;;;;;;;;;;;;;;;;;6219326;23;19931;-81
2022/06/24 05:04:45;;;;;;;;;;;;;;;;;;6191554;23;20325;-79
2022/06/24 05:07:10;;;;;;;;;;;;;;;;;;6246818;23;19907;-77
2022/06/24 05:09:38;;;;;;;;;;;;;;;;;;6250010;23;19950;-79
2022/06/24 05:12:04;;;;;;;;;;;;;;;;;;6245766;23;19908;-79
2022/06/24 05:14:29;;;;;;;;;;;;;;;;;;6244017;23;19915;-79
2022/06/24 05:16:55;;;;;;;;;;;;;;;;;;6242507;23;19918;-79
2022/06/24 05:19:20;;;;;;;;;;;;;;;;;;6240699;23;19931;-79
2022/06/24 05:21:46;;;;;;;;;;;;;;;;;;6212618;23;20385;-78
2022/06/24 05:24:11;;;;;;;;;;;;;;;;;;6239923;23;19977;-78
2022/06/24 05:26:36;;;;;;;;;;;;;;;;;;6243650;23;19907;-76
2022/06/24 05:29:02;;;;;;;;;;;;;;;;;;6244457;23;19930;-78
2022/06/24 05:31:28;;;;;;;;;;;;;;;;;;6243547;23;19907;-81
2022/06/24 05:33:56;;;;;;;;;;;;;;;;;;6241927;23;19907;-76
2022/06/24 05:36:22;;;;;;;;;;;;;;;;;;6240635;23;19907;-78
2022/06/24 05:38:49;;;;;;;;;;;;;;;;;;6240766;23;19907;-79
2022/06/24 05:41:29;;;;;;;;;;;;;;;;;;6243528;23;19907;-79
2022/06/24 05:43:55;;;;;;;;;;;;;;;;;;6207827;23;19911;-79
2022/06/24 05:46:20;;;;;;;;;;;;;;;;;;6221284;23;19914;-79
2022/06/24 05:48:45;;;;;;;;;;;;;;;;;;6251766;23;19907;-77
2022/06/24 05:51:12;;;;;;;;;;;;;;;;;;6246829;23;19915;-77
2022/06/24 05:56:22;;;;;;;;;;;;;;;;;;6243055;23;19914;-78
2022/06/24 05:58:47;;;;;;;;;;;;;;;;;;6242722;23;20246;-79
2022/06/24 06:01:12;;;;;;;;;;;;;;;;;;6244240;23;19914;-79
2022/06/24 06:03:38;;;;;;;;;;;;;;;;;;6245289;23;19908;-77
2022/06/24 06:06:03;;;;;;;;;;;;;;;;;;6247019;23;19974;-78
2022/06/24 06:08:29;;;;;;;;;;;;;;;;;;6248035;23;19962;-78
2022/06/24 06:10:54;;;;;;;;;;;;;;;;;;6246349;23;19907;-80
2022/06/24 06:13:19;;;;;;;;;;;;;;;;;;6217054;23;19934;-80
2022/06/24 06:15:45;;;;;;;;;;;;;;;;;;6244865;23;19973;-81
2022/06/24 06:18:10;;;;;;;;;;;;;;;;;;6215090;23;19916;-81
2022/06/24 06:20:35;;;;;;;;;;;;;;;;;;6216062;23;19982;-79
2022/06/24 06:23:01;;;;;;;;;;;;;;;;;;6244973;23;19935;-80
2022/06/24 06:25:26;;;;;;;;;;;;;;;;;;6243177;23;20412;-83
2022/06/24 06:27:52;;;;;;;;;;;;;;;;;;6246992;23;20374;-81
2022/06/24 06:30:17;;;;;;;;;;;;;;;;;;6259788;23;19912;-80
2022/06/24 06:32:43;;;;;;;;;;;;;;;;;;6254058;23;19907;-82
2022/06/24 06:35:08;;;;;;;;;;;;;;;;;;6229979;23;19907;-80
2022/06/24 06:37:34;;;;;;;;;;;;;;;;;;6224984;23;19934;-79
2022/06/24 06:39:59;;;;;;;;;;;;;;;;;;6195596;23;19907;-81
2022/06/24 06:42:25;;;;;;;;;;;;;;;;;;6246401;23;20302;-79
2022/06/24 06:44:50;;;;;;;;;;;;;;;;;;6247743;23;20338;-81
2022/06/24 06:47:18;;;;;;;;;;;;;;;;;;6246784;23;20212;-78
2022/06/24 06:49:54;;;;;;;;;;;;;;;;;;6253352;23;19985;-79
2022/06/24 06:52:20;;;;;;;;;;;;;;;;;;6221525;23;19914;-78
2022/06/24 06:54:48;;;;;;;;;;;;;;;;;;6247776;23;19945;-82
2022/06/24 06:57:13;;;;;;;;;;;;;;;;;;6196342;23;19914;-80
2022/06/24 06:59:39;;;;;;;;;;;;;;;;;;6249808;23;19907;-79
2022/06/24 07:02:04;;;;;;;;;;;;;;;;;;6247250;23;20319;-78
2022/06/24 07:04:29;;;;;;;;;;;;;;;;;;6219320;23;19938;-79
2022/06/24 07:06:55;;;;;;;;;;;;;;;;;;6245240;23;19907;-82
2022/06/24 07:09:20;;;;;;;;;;;;;;;;;;6251678;23;19919;-82
2022/06/24 07:11:45;;;;;;;;;;;;;;;;;;6247254;23;19907;-80
2022/06/24 07:14:11;;;;;;;;;;;;;;;;;;6243315;23;19911;-81
2022/06/24 07:16:36;;;;;;;;;;;;;;;;;;6216135;23;19907;-80
2022/06/24 07:19:02;;;;;;;;;;;;;;;;;;6241756;23;20378;-81
2022/06/24 07:21:27;;;;;;;;;;;;;;;;;;6242525;23;19974;-79
2022/06/24 07:23:53;;;;;;;;;;;;;;;;;;6240365;23;19907;-79
2022/06/24 07:26:20;;;;;;;;;;;;;;;;;;6242050;23;19907;-79
2022/06/24 07:28:45;;;;;;;;;;;;;;;;;;6244840;23;19915;-79
2022/06/24 07:31:13;;;;;;;;;;;;;;;;;;6224845;23;20171;-80
2022/06/24 07:33:39;;;;;;;;;;;;;;;;;;6242744;23;19914;-79
2022/06/24 07:36:07;;;;;;;;;;;;;;;;;;6243750;23;19908;-81
2022/06/24 07:38:32;;;;;;;;;;;;;;;;;;6243444;23;19958;-81
2022/06/24 07:41:01;;;;;;;;;;;;;;;;;;6246260;23;20331;-81
2022/06/24 07:43:27;;;;;;;;;;;;;;;;;;6247515;23;19914;-81
2022/06/24 07:45:53;;;;;;;;;;;;;;;;;;6246817;23;19907;-81
2022/06/24 07:48:18;;;;;;;;;;;;;;;;;;6218385;23;19908;-78
2022/06/24 07:50:43;;;;;;;;;;;;;;;;;;6250152;23;19963;-80
2022/06/24 07:53:09;;;;;;;;;;;;;;;;;;6249027;23;19967;-80
2022/06/24 07:58:18;;;;;;;;;;;;;;;;;;6243640;23;19915;-81
2022/06/24 08:00:44;;;;;;;;;;;;;;;;;;6214487;23;20023;-79
2022/06/24 08:03:09;;;;;;;;;;;;;;;;;;6242719;23;19909;-81
2022/06/24 08:05:34;;;;;;;;;;;;;;;;;;6242119;23;19907;-79
2022/06/24 08:08:00;;;;;;;;;;;;;;;;;;6242606;23;20361;-84
2022/06/24 08:10:25;;;;;;;;;;;;;;;;;;6253917;23;19915;-80
2022/06/24 08:12:51;;;;;;;;;;;;;;;;;;6248807;23;19930;-81
2022/06/24 08:15:17;;;;;;;;;;;;;;;;;;6242674;23;19969;-80
2022/06/24 08:17:42;;;;;;;;;;;;;;;;;;6209137;23;19969;-81
2022/06/24 08:20:08;;;;;;;;;;;;;;;;;;6211873;23;19932;-81
2022/06/24 08:22:33;;;;;;;;;;;;;;;;;;6211909;23;19908;-81
2022/06/24 08:25:01;;;;;;;;;;;;;;;;;;6186858;23;20296;-80
2022/06/24 08:27:26;;;;;;;;;;;;;;;;;;6188714;23;19907;-80
2022/06/24 08:29:52;;;;;;;;;;;;;;;;;;6217994;23;19915;-81
2022/06/24 08:32:18;;;;;;;;;;;;;;;;;;6217420;23;19903;-80
2022/06/24 08:34:47;;;;;;;;;;;;;;;;;;6219597;23;19908;-80
2022/06/24 08:37:21;;;;;;;;;;;;;;;;;;6214684;23;19939;-81
2022/06/24 08:39:46;;;;;;;;;;;;;;;;;;6214019;23;20328;-79
2022/06/24 08:42:11;;;;;;;;;;;;;;;;;;6210793;23;19974;-79
2022/06/24 08:44:37;;;;;;;;;;;;;;;;;;6184986;23;20294;-79
2022/06/24 08:47:02;;;;;;;;;;;;;;;;;;6212018;23;19915;-81
2022/06/24 08:49:28;;;;;;;;;;;;;;;;;;6214411;23;19995;-81
2022/06/24 08:51:53;;;;;;;;;;;;;;;;;;6224762;23;20308;-80
2022/06/24 08:54:18;;;;;;;;;;;;;;;;;;6216287;23;19918;-80
2022/06/24 08:56:44;;;;;;;;;;;;;;;;;;6188647;23;20370;-80
2022/06/24 08:59:10;;;;;;;;;;;;;;;;;;6215642;23;19986;-79
2022/06/24 09:01:41;;;;;;;;;;;;;;;;;;6213391;23;19915;-81
2022/06/24 09:04:07;;;;;;;;;;;;;;;;;;6211504;23;19907;-80
2022/06/24 09:06:39;;;;;;;;;;;;;;;;;;6186399;23;19965;-80
2022/06/24 09:09:04;;;;;;;;;;;;;;;;;;6210578;23;20293;-81
2022/06/24 09:11:37;;;;;;;;;;;;;;;;;;6216103;23;19975;-79
2022/06/24 09:14:02;;;;;;;;;;;;;;;;;;6211376;23;19908;-79
2022/06/24 09:16:27;;;;;;;;;;;;;;;;;;6211673;23;19908;-80
2022/06/24 09:18:54;;;;;;;;;;;;;;;;;;6237215;23;19911;-80
2022/06/24 09:21:21;;;;;;;;;;;;;;;;;;6243568;23;19907;-80
2022/06/24 09:23:51;;;;;;;;;;;;;;;;;;6242609;23;19927;-81
2022/06/24 09:26:16;;;;;;;;;;;;;;;;;;6216361;23;19914;-80
2022/06/24 09:28:41;;;;;;;;;;;;;;;;;;6220726;23;19907;-80
2022/06/24 09:31:07;;;;;;;;;;;;;;;;;;6226899;23;20243;-79
2022/06/24 09:33:35;;;;;;;;;;;;;;;;;;6243539;23;20328;-79
2022/06/24 09:36:01;;;;;;;;;;;;;;;;;;6243850;23;19934;-79
2022/06/24 09:38:27;;;;;;;;;;;;;;;;;;6191755;23;19912;-80
2022/06/24 09:41:04;;;;;;;;;;;;;;;;;;6243265;23;19966;-81
2022/06/24 09:43:32;;;;;;;;;;;;;;;;;;6244299;23;20357;-81
2022/06/24 09:45:57;;;;;;;;;;;;;;;;;;6243813;23;19982;-80
2022/06/24 09:48:30;;;;;;;;;;;;;;;;;;6246862;23;19907;-79
2022/06/24 09:50:56;;;;;;;;;;;;;;;;;;6226768;23;19915;-79
2022/06/24 09:53:23;;;;;;;;;;;;;;;;;;6243733;23;19911;-79
2022/06/24 09:55:48;;;;;;;;;;;;;;;;;;6217820;23;19907;-79
2022/06/24 09:58:13;;;;;;;;;;;;;;;;;;6244798;23;19914;-80
2022/06/24 10:00:41;;;;;;;;;;;;;;;;;;6244920;23;19946;-81
2022/06/24 10:03:07;;;;;;;;;;;;;;;;;;6245237;23;19914;-81
2022/06/24 10:05:33;;;;;;;;;;;;;;;;;;6246103;23;20633;-79
2022/06/24 10:07:59;;;;;;;;;;;;;;;;;;6219274;23;19974;-81
2022/06/24 10:10:24;;;;;;;;;;;;;;;;;;6238865;23;19912;-81
2022/06/24 10:12:50;;;;;;;;;;;;;;;;;;6245167;23;20353;-80
2022/06/24 10:15:15;;;;;;;;;;;;;;;;;;6244799;23;19907;-80
2022/06/24 10:17:42;;;;;;;;;;;;;;;;;;6218177;23;19912;-80
2022/06/24 10:20:08;;;;;;;;;;;;;;;;;;6245038;23;19907;-80
2022/06/24 10:22:43;;;;;;;;;;;;;;;;;;6217986;23;19908;-79
2022/06/24 10:25:08;;;;;;;;;;;;;;;;;;6244917;23;19907;-80
2022/06/24 10:27:52;;;;;;;;;;;;;;;;;;6244584;23;19929;-80
2022/06/24 10:30:36;;;;;;;;;;;;;;;;;;6257153;23;19911;-80
2022/06/24 10:33:21;;;;;;;;;;;;;;;;;;6245800;23;20260;-79
2022/06/24 10:36:00;;;;;;;;;;;;;;;;;;6245428;23;19907;-79
2022/06/24 10:38:26;;;;;;;;;;;;;;;;;;6244631;23;19918;-78
2022/06/24 10:40:52;;;;;;;;;;;;;;;;;;6244494;23;19980;-79
2022/06/24 10:43:36;;;;;;;;;;;;;;;;;;6245028;23;20254;-79
2022/06/24 10:46:10;;;;;;;;;;;;;;;;;;6244517;23;20315;-80
2022/06/24 10:48:44;;;;;;;;;;;;;;;;;;6245017;23;19951;-80
2022/06/24 10:51:19;;;;;;;;;;;;;;;;;;6263565;23;19982;-79
2022/06/24 10:54:06;;;;;;;;;;;;;;;;;;6246503;23;19907;-79
2022/06/24 10:56:47;;;;;;;;;;;;;;;;;;6246417;23;20308;-79
2022/06/24 10:59:14;;;;;;;;;;;;;;;;;;6246537;23;19907;-80
2022/06/24 11:01:43;;;;;;;;;;;;;;;;;;6247028;23;19983;-81
2022/06/24 11:04:08;;;;;;;;;;;;;;;;;;6247174;23;20292;-80
2022/06/24 11:06:34;;;;;;;;;;;;;;;;;;6219733;23;19914;-78
2022/06/24 11:09:06;;;;;;;;;;;;;;;;;;6246200;23;20239;-78
2022/06/24 11:11:32;;;;;;;;;;;;;;;;;;6258788;23;19955;-78
2022/06/24 11:13:57;;;;;;;;;;;;;;;;;;6246295;23;19908;-78
2022/06/24 11:16:25;;;;;;;;;;;;;;;;;;6246777;23;19914;-78
2022/06/24 11:18:51;;;;;;;;;;;;;;;;;;6246677;23;19918;-78
2022/06/24 11:21:19;;;;;;;;;;;;;;;;;;6247023;23;19907;-78
2022/06/24 11:23:48;;;;;;;;;;;;;;;;;;6246657;23;19914;-78
2022/06/24 11:26:17;;;;;;;;;;;;;;;;;;6219465;23;19907;-77
2022/06/24 11:28:43;;;;;;;;;;;;;;;;;;6246172;23;19907;-78
2022/06/24 11:31:27;;;;;;;;;;;;;;;;;;6259110;23;19908;-77
2022/06/24 11:33:53;;;;;;;;;;;;;;;;;;6248345;23;19914;-80
2022/06/24 11:36:21;;;;;;;;;;;;;;;;;;6246187;23;19908;-80
2022/06/24 11:38:56;;;;;;;;;;;;;;;;;;6195140;23;19938;-81
2022/06/24 11:41:22;;;;;;;;;;;;;;;;;;6194846;23;19908;-80
2022/06/24 11:43:50;;;;;;;;;;;;;;;;;;6246550;23;20311;-80
2022/06/24 11:46:16;;;;;;;;;;;;;;;;;;6246257;23;20007;-79
2022/06/24 11:48:41;;;;;;;;;;;;;;;;;;6244696;23;19908;-80
2022/06/24 11:51:17;;;;;;;;;;;;;;;;;;6236159;23;19947;-85
2022/06/24 11:57:03;;;;;;;;;;;;;;;;;;6155479;23;20375;-85
2022/06/24 11:59:29;;;;;;;;;;;;;;;;;;6248715;22;19980;-78
2022/06/24 12:01:54;;;;;;;;;;;;;;;;;;6275840;22;19934;-78
2022/06/24 12:04:20;;;;;;;;;;;;;;;;;;6276467;22;20357;-78
2022/06/24 12:06:45;;;;;;;;;;;;;;;;;;6249780;22;19907;-78
2022/06/24 12:09:10;;;;;;;;;;;;;;;;;;6248841;22;20319;-78
2022/06/24 12:11:39;;;;;;;;;;;;;;;;;;6249818;22;19907;-80
2022/06/24 12:14:09;;;;;;;;;;;;;;;;;;6276638;22;19957;-80
2022/06/24 12:16:53;;;;;;;;;;;;;;;;;;6249381;22;19907;-79
2022/06/24 12:19:18;;;;;;;;;;;;;;;;;;6276470;22;19977;-78
2022/06/24 12:21:43;;;;;;;;;;;;;;;;;;6287643;22;19914;-80
2022/06/24 12:24:18;;;;;;;;;;;;;;;;;;6276791;22;19907;-80
2022/06/24 12:26:45;;;;;;;;;;;;;;;;;;6276863;22;19982;-79
2022/06/24 12:29:10;;;;;;;;;;;;;;;;;;6276066;22;20380;-79
2022/06/24 12:31:35;;;;;;;;;;;;;;;;;;6276941;22;19908;-78
2022/06/24 12:34:01;;;;;;;;;;;;;;;;;;6276729;22;19903;-80
2022/06/24 12:36:40;;;;;;;;;;;;;;;;;;6248675;22;19914;-79
2022/06/24 12:39:06;;;;;;;;;;;;;;;;;;6276216;22;19911;-78
2022/06/24 12:41:40;;;;;;;;;;;;;;;;;;6276004;22;19910;-79
2022/06/24 12:44:06;;;;;;;;;;;;;;;;;;6285424;22;20319;-80
2022/06/24 12:46:31;;;;;;;;;;;;;;;;;;6276639;22;19960;-78
2022/06/24 12:51:41;;;;;;;;;;;;;;;;;;6252856;22;19914;-80
2022/06/24 12:54:06;;;;;;;;;;;;;;;;;;6224210;22;19935;-79
2022/06/24 12:56:34;;;;;;;;;;;;;;;;;;6276421;22;19978;-79
2022/06/24 12:58:59;;;;;;;;;;;;;;;;;;6275983;22;19907;-80
2022/06/24 13:01:25;;;;;;;;;;;;;;;;;;6275842;22;19915;-79
2022/06/24 13:03:50;;;;;;;;;;;;;;;;;;6276049;22;19927;-79
2022/06/24 13:06:15;;;;;;;;;;;;;;;;;;6249342;22;19907;-79
2022/06/24 13:08:41;;;;;;;;;;;;;;;;;;6277918;22;19907;-80
2022/06/24 13:11:06;;;;;;;;;;;;;;;;;;6249098;22;19915;-80
2022/06/24 13:13:32;;;;;;;;;;;;;;;;;;6275680;22;19907;-78
2022/06/24 13:15:58;;;;;;;;;;;;;;;;;;6249121;22;19911;-79
2022/06/24 13:18:23;;;;;;;;;;;;;;;;;;6276075;22;19965;-79
2022/06/24 13:20:48;;;;;;;;;;;;;;;;;;6275755;22;20310;-79
2022/06/24 13:23:14;;;;;;;;;;;;;;;;;;6275708;22;20251;-79
2022/06/24 13:25:42;;;;;;;;;;;;;;;;;;6276357;22;20314;-80
2022/06/24 13:28:07;;;;;;;;;;;;;;;;;;6250721;22;19986;-79
2022/06/24 13:30:33;;;;;;;;;;;;;;;;;;6277669;22;20258;-80
2022/06/24 13:32:58;;;;;;;;;;;;;;;;;;6276093;22;19907;-79
2022/06/24 13:35:23;;;;;;;;;;;;;;;;;;6275843;22;20272;-79
2022/06/24 13:37:49;;;;;;;;;;;;;;;;;;6248737;22;19911;-80
2022/06/24 13:40:14;;;;;;;;;;;;;;;;;;6275732;22;19903;-80
2022/06/24 13:42:39;;;;;;;;;;;;;;;;;;6276081;22;19956;-80
2022/06/24 13:45:05;;;;;;;;;;;;;;;;;;6248844;22;19915;-79
2022/06/24 13:47:31;;;;;;;;;;;;;;;;;;6275873;22;19966;-79
2022/06/24 13:49:58;;;;;;;;;;;;;;;;;;6275516;22;19907;-78
2022/06/24 13:52:25;;;;;;;;;;;;;;;;;;6277947;22;19951;-80
2022/06/24 13:54:50;;;;;;;;;;;;;;;;;;6276401;22;19938;-80
2022/06/24 13:57:15;;;;;;;;;;;;;;;;;;6275670;22;19907;-80
2022/06/24 13:59:41;;;;;;;;;;;;;;;;;;6248754;22;19907;-80
2022/06/24 14:02:07;;;;;;;;;;;;;;;;;;6275725;22;19911;-79
2022/06/24 14:04:32;;;;;;;;;;;;;;;;;;6275573;22;19914;-79
2022/06/24 14:06:57;;;;;;;;;;;;;;;;;;6275775;22;19981;-79
2022/06/24 14:09:23;;;;;;;;;;;;;;;;;;6275538;22;19907;-79
2022/06/24 14:11:48;;;;;;;;;;;;;;;;;;6275700;22;19907;-79
2022/06/24 14:14:14;;;;;;;;;;;;;;;;;;6279875;22;19903;-81
2022/06/24 14:16:39;;;;;;;;;;;;;;;;;;6280894;22;19907;-79
2022/06/24 14:19:06;;;;;;;;;;;;;;;;;;6275518;22;20643;-80
2022/06/24 14:21:32;;;;;;;;;;;;;;;;;;6223514;22;20337;-78
2022/06/24 14:26:41;;;;;;;;;;;;;;;;;;6277667;22;19925;-79
2022/06/24 14:29:08;;;;;;;;;;;;;;;;;;6277485;22;19922;-78
2022/06/24 14:31:34;;;;;;;;;;;;;;;;;;6277752;22;19907;-79
2022/06/24 14:33:59;;;;;;;;;;;;;;;;;;6277007;22;19914;-77
2022/06/24 14:36:24;;;;;;;;;;;;;;;;;;6278848;22;19911;-80
2022/06/24 14:41:33;;;;;;;;;;;;;;;;;;6253966;22;19914;-78
2022/06/24 14:43:59;;;;;;;;;;;;;;;;;;6277211;22;19974;-78
2022/06/24 14:46:24;;;;;;;;;;;;;;;;;;6276812;22;19907;-78
2022/06/24 14:48:49;;;;;;;;;;;;;;;;;;6276428;22;20261;-78
2022/06/24 14:51:15;;;;;;;;;;;;;;;;;;6277039;22;20254;-78
2022/06/24 14:53:40;;;;;;;;;;;;;;;;;;6277100;22;19907;-79
2022/06/24 14:56:05;;;;;;;;;;;;;;;;;;6276644;22;19907;-79
2022/06/24 14:58:31;;;;;;;;;;;;;;;;;;6277201;22;19907;-79
2022/06/24 15:00:56;;;;;;;;;;;;;;;;;;6279725;22;19918;-79
2022/06/24 15:03:21;;;;;;;;;;;;;;;;;;6276565;22;19968;-78
2022/06/24 15:05:47;;;;;;;;;;;;;;;;;;6276560;22;19907;-79
2022/06/24 15:08:12;;;;;;;;;;;;;;;;;;6276522;22;19907;-79
2022/06/24 15:10:37;;;;;;;;;;;;;;;;;;6276452;22;19907;-79
2022/06/24 15:13:03;;;;;;;;;;;;;;;;;;6276901;22;19970;-80
2022/06/24 15:15:28;;;;;;;;;;;;;;;;;;6276267;22;20227;-80
2022/06/24 15:17:53;;;;;;;;;;;;;;;;;;6276731;22;19911;-78
2022/06/24 15:20:19;;;;;;;;;;;;;;;;;;6276442;22;19910;-78
2022/06/24 15:22:44;;;;;;;;;;;;;;;;;;6283337;22;19913;-77
2022/06/24 15:25:09;;;;;;;;;;;;;;;;;;6280370;22;19911;-78
2022/06/24 15:27:37;;;;;;;;;;;;;;;;;;6276573;22;19903;-79
2022/06/24 15:30:03;;;;;;;;;;;;;;;;;;6275809;22;19907;-79
2022/06/24 15:32:28;;;;;;;;;;;;;;;;;;6276526;22;19915;-78
2022/06/24 15:34:53;;;;;;;;;;;;;;;;;;6276580;22;20246;-79
2022/06/24 15:37:19;;;;;;;;;;;;;;;;;;6250343;22;19911;-79
2022/06/24 15:39:44;;;;;;;;;;;;;;;;;;6276820;22;19907;-79
2022/06/24 15:42:10;;;;;;;;;;;;;;;;;;6277069;22;19907;-79
2022/06/24 15:44:35;;;;;;;;;;;;;;;;;;6280034;22;19965;-77
2022/06/24 15:47:01;;;;;;;;;;;;;;;;;;6287161;22;19907;-78
2022/06/24 15:49:26;;;;;;;;;;;;;;;;;;6283280;22;19972;-79
2022/06/24 15:51:51;;;;;;;;;;;;;;;;;;6286399;22;19907;-78
2022/06/24 15:54:17;;;;;;;;;;;;;;;;;;6287619;22;19910;-77
2022/06/24 15:56:42;;;;;;;;;;;;;;;;;;6296382;22;19909;-78
2022/06/24 15:59:07;;;;;;;;;;;;;;;;;;6278062;22;19892;-78
2022/06/24 16:01:33;;;;;;;;;;;;;;;;;;6303979;22;19915;-78
2022/06/24 16:03:58;;;;;;;;;;;;;;;;;;6302417;22;19938;-78
2022/06/24 16:06:23;;;;;;;;;;;;;;;;;;6289760;22;19907;-78
2022/06/24 16:08:49;;;;;;;;;;;;;;;;;;6281000;22;19986;-78
2022/06/24 16:11:14;;;;;;;;;;;;;;;;;;6277305;22;19907;-77
2022/06/24 16:13:39;;;;;;;;;;;;;;;;;;6276014;22;19907;-77
2022/06/24 16:16:05;;;;;;;;;;;;;;;;;;6276624;22;20741;-79
2022/06/24 16:18:30;;;;;;;;;;;;;;;;;;6276305;22;20297;-78
2022/06/24 16:20:55;;;;;;;;;;;;;;;;;;6248805;22;20327;-78
2022/06/24 16:23:21;;;;;;;;;;;;;;;;;;6276142;22;19907;-79
2022/06/24 16:28:40;;;;;;;;;;;;;;;;;;6275484;22;19964;-77
2022/06/24 16:31:06;;;;;;;;;;;;;;;;;;6284198;22;19938;-77
2022/06/24 16:33:31;;;;;;;;;;;;;;;;;;6281099;22;19941;-78
2022/06/24 16:35:56;;;;;;;;;;;;;;;;;;6276436;22;19907;-80
2022/06/24 16:38:22;;;;;;;;;;;;;;;;;;6275963;22;19982;-80
2022/06/24 16:40:47;;;;;;;;;;;;;;;;;;6276031;22;19938;-79
2022/06/24 16:43:15;;;;;;;;;;;;;;;;;;6275860;22;19911;-80
2022/06/24 16:45:41;;;;;;;;;;;;;;;;;;6276088;22;19914;-79
2022/06/24 16:48:07;;;;;;;;;;;;;;;;;;6248979;22;19907;-80
2022/06/24 16:50:32;;;;;;;;;;;;;;;;;;6275484;22;19907;-79
2022/06/24 16:52:57;;;;;;;;;;;;;;;;;;6276184;22;20358;-78
2022/06/24 16:55:22;;;;;;;;;;;;;;;;;;6279493;22;19910;-79
2022/06/24 16:57:51;;;;;;;;;;;;;;;;;;6275783;22;19907;-79
2022/06/24 17:00:17;;;;;;;;;;;;;;;;;;6275447;22;19986;-79
2022/06/24 17:02:42;;;;;;;;;;;;;;;;;;6275749;22;19907;-78
2022/06/24 17:05:07;;;;;;;;;;;;;;;;;;6275713;22;19907;-80